Time;durP1;ratioP1;P1;durP2;ratioP2;P2;SDS_P1;SDS_P2;PMS_P1;PMS_P2;Temp;Humidity;BMP_temperature;BMP_pressure;BME280_temperature;BME280_humidity;BME280_pressure;Samples;Min_cycle;Max_cycle;Signal;HPM_P1;HPM_P2
2021/05/20 00:00:17;;;;;;;1.73;0.75;;;;;;;;;;355532;107;2931991;-72
2021/05/20 00:01:22;;;;;;;2.68;0.84;;;;;;;;;;374338;107;1961914;-72
2021/05/20 00:02:34;;;;;;;3.39;0.72;;;;;;;;;;383066;106;1986955;-72
2021/05/20 00:03:41;;;;;;;2.95;1.07;;;;;;;;;;307969;110;2166224;-71
2021/05/20 00:04:46;;;;;;;1.58;0.83;;;;;;;;;;330152;111;1963976;-70
2021/05/20 00:05:51;;;;;;;2.14;0.83;;;;;;;;;;336251;111;1961921;-70
2021/05/20 00:06:56;;;;;;;1.86;0.73;;;;;;;;;;343521;110;1963000;-72
2021/05/20 00:08:01;;;;;;;1.67;0.79;;;;;;;;;;352859;110;1963018;-72
2021/05/20 00:09:06;;;;;;;1.32;0.74;;;;;;;;;;355814;111;1964003;-71
2021/05/20 00:10:13;;;;;;;2.11;0.69;;;;;;;;;;362691;110;1962038;-70
2021/05/20 00:11:18;;;;;;;2.46;0.80;;;;;;;;;;363422;109;1961849;-72
2021/05/20 00:12:23;;;;;;;1.46;0.73;;;;;;;;;;365177;111;1960798;-72
2021/05/20 00:13:29;;;;;;;2.29;0.93;;;;;;;;;;365197;111;1960988;-71
2021/05/20 00:14:34;;;;;;;2.77;0.96;;;;;;;;;;365000;109;1960681;-74
2021/05/20 00:15:39;;;;;;;2.72;0.92;;;;;;;;;;324344;113;2883886;-73
2021/05/20 00:16:45;;;;;;;2.33;1.11;;;;;;;;;;322722;110;2020341;-74
2021/05/20 00:17:56;;;;;;;1.32;0.88;;;;;;;;;;394806;104;1985025;-73
2021/05/20 00:19:01;;;;;;;1.41;0.80;;;;;;;;;;375063;105;1961809;-73
2021/05/20 00:20:07;;;;;;;1.44;0.79;;;;;;;;;;375101;106;1962051;-74
2021/05/20 00:21:13;;;;;;;2.72;1.22;;;;;;;;;;374145;106;1964376;-73
2021/05/20 00:22:19;;;;;;;2.36;1.14;;;;;;;;;;363408;106;2958074;-73
2021/05/20 00:23:25;;;;;;;2.88;1.06;;;;;;;;;;371221;107;1960976;-72
2021/05/20 00:24:30;;;;;;;1.59;0.94;;;;;;;;;;370545;108;1961909;-74
2021/05/20 00:25:41;;;;;;;2.53;0.95;;;;;;;;;;392828;104;1987225;-73
2021/05/20 00:26:48;;;;;;;2.58;1.30;;;;;;;;;;357750;105;2928066;-73
2021/05/20 00:27:53;;;;;;;2.68;0.89;;;;;;;;;;329022;109;2005603;-73
2021/05/20 00:28:59;;;;;;;1.46;0.87;;;;;;;;;;341075;109;1961992;-74
2021/05/20 00:30:06;;;;;;;3.54;1.48;;;;;;;;;;370478;108;1963995;-74
2021/05/20 00:31:12;;;;;;;2.80;1.13;;;;;;;;;;369447;108;1961979;-73
2021/05/20 00:32:18;;;;;;;2.67;1.08;;;;;;;;;;343681;108;2424041;-73
2021/05/20 00:33:23;;;;;;;2.07;1.21;;;;;;;;;;343768;109;1961977;-73
2021/05/20 00:34:28;;;;;;;2.02;1.10;;;;;;;;;;350520;109;1962923;-73
2021/05/20 00:35:33;;;;;;;1.88;1.10;;;;;;;;;;352452;109;1961941;-73
2021/05/20 00:36:38;;;;;;;2.76;0.91;;;;;;;;;;363712;108;1961983;-74
2021/05/20 00:37:43;;;;;;;2.49;1.32;;;;;;;;;;369796;109;1961946;-73
2021/05/20 00:38:48;;;;;;;2.47;1.41;;;;;;;;;;369472;109;1962024;-72
2021/05/20 00:39:53;;;;;;;3.28;1.86;;;;;;;;;;370266;109;1962001;-73
2021/05/20 00:40:59;;;;;;;2.76;1.41;;;;;;;;;;369817;109;1961945;-75
2021/05/20 00:42:05;;;;;;;3.29;1.89;;;;;;;;;;369194;109;1961985;-74
2021/05/20 00:43:10;;;;;;;2.55;1.38;;;;;;;;;;371221;109;1965160;-73
2021/05/20 00:44:15;;;;;;;2.79;1.39;;;;;;;;;;369850;107;1960884;-73
2021/05/20 00:45:22;;;;;;;2.14;1.16;;;;;;;;;;363302;107;2959779;-74
2021/05/20 00:46:33;;;;;;;2.84;1.41;;;;;;;;;;393584;104;1985958;-73
2021/05/20 00:47:39;;;;;;;3.59;1.13;;;;;;;;;;380425;106;1963915;-73
2021/05/20 00:48:45;;;;;;;2.55;1.38;;;;;;;;;;376568;108;1961901;-73
2021/05/20 00:49:50;;;;;;;3.55;1.28;;;;;;;;;;378201;106;1962087;-75
2021/05/20 00:50:55;;;;;;;4.83;1.27;;;;;;;;;;333670;106;2738010;-74
2021/05/20 00:52:00;;;;;;;2.37;1.16;;;;;;;;;;339578;106;1978462;-74
2021/05/20 00:53:06;;;;;;;2.79;1.36;;;;;;;;;;352035;105;1961980;-75
2021/05/20 00:54:17;;;;;;;2.28;1.27;;;;;;;;;;396047;104;1985985;-74
2021/05/20 00:55:24;;;;;;;2.77;1.57;;;;;;;;;;375018;107;1960976;-73
2021/05/20 00:56:32;;;;;;;2.92;1.44;;;;;;;;;;344794;106;1960632;-74
2021/05/20 00:57:38;;;;;;;2.84;1.66;;;;;;;;;;373635;107;1962908;-74
2021/05/20 00:58:44;;;;;;;3.33;1.49;;;;;;;;;;375033;105;1963028;-74
2021/05/20 00:59:50;;;;;;;2.61;1.52;;;;;;;;;;335008;107;2015045;-73
2021/05/20 01:00:55;;;;;;;6.37;2.11;;;;;;;;;;358060;109;1963979;-75
2021/05/20 01:02:01;;;;;;;3.88;1.43;;;;;;;;;;375974;105;1962012;-74
2021/05/20 01:03:06;;;;;;;3.64;1.73;;;;;;;;;;373949;107;1962914;-73
2021/05/20 01:04:11;;;;;;;2.63;1.37;;;;;;;;;;375049;105;1961928;-72
2021/05/20 01:05:16;;;;;;;4.32;1.78;;;;;;;;;;367610;109;1964033;-73
2021/05/20 01:06:22;;;;;;;2.52;1.44;;;;;;;;;;374721;107;1961904;-73
2021/05/20 01:07:28;;;;;;;2.66;1.42;;;;;;;;;;341016;106;2885936;-74
2021/05/20 01:08:33;;;;;;;2.46;1.41;;;;;;;;;;342717;106;1962856;-74
2021/05/20 01:09:39;;;;;;;4.21;1.91;;;;;;;;;;354110;106;1963990;-75
2021/05/20 01:10:45;;;;;;;2.82;1.47;;;;;;;;;;374273;106;1962011;-74
2021/05/20 01:11:51;;;;;;;3.09;1.68;;;;;;;;;;370746;107;1961905;-73
2021/05/20 01:13:03;;;;;;;2.29;1.54;;;;;;;;;;348712;104;2763995;-74
2021/05/20 01:14:11;;;;;;;4.22;1.62;;;;;;;;;;313229;107;2204632;-74
2021/05/20 01:15:25;;;;;;;3.04;1.32;;;;;;;;;;365253;110;1961986;-75
2021/05/20 01:16:31;;;;;;;3.43;1.80;;;;;;;;;;368639;107;1960866;-74
2021/05/20 01:17:36;;;;;;;2.76;1.48;;;;;;;;;;371612;107;1963046;-73
2021/05/20 01:18:42;;;;;;;2.92;1.79;;;;;;;;;;363509;107;2956961;-73
2021/05/20 01:19:47;;;;;;;3.57;1.64;;;;;;;;;;318022;110;2035554;-72
2021/05/20 01:20:53;;;;;;;3.08;1.73;;;;;;;;;;359800;109;1960777;-70
2021/05/20 01:21:58;;;;;;;4.20;1.61;;;;;;;;;;371174;107;1960900;-72
2021/05/20 01:23:12;;;;;;;3.14;1.56;;;;;;;;;;386263;107;1985976;-74
2021/05/20 01:24:19;;;;;;;6.29;1.76;;;;;;;;;;369299;109;1962004;-73
2021/05/20 01:25:30;;;;;;;3.38;1.81;;;;;;;;;;394907;104;1984851;-73
2021/05/20 01:26:37;;;;;;;4.32;2.06;;;;;;;;;;334392;105;2029697;-73
2021/05/20 01:27:43;;;;;;;4.88;2.05;;;;;;;;;;366221;107;1960989;-75
2021/05/20 01:28:48;;;;;;;3.81;2.11;;;;;;;;;;371612;107;1962034;-73
2021/05/20 01:29:54;;;;;;;3.69;2.27;;;;;;;;;;370313;107;1963958;-74
2021/05/20 01:31:03;;;;;;;6.09;2.12;;;;;;;;;;371038;107;1962002;-73
2021/05/20 01:32:08;;;;;;;4.54;1.94;;;;;;;;;;369023;107;1962989;-75
2021/05/20 01:33:13;;;;;;;5.63;2.23;;;;;;;;;;367650;107;1962024;-75
2021/05/20 01:34:18;;;;;;;3.00;2.00;;;;;;;;;;371640;107;1961978;-74
2021/05/20 01:35:30;;;;;;;4.12;1.50;;;;;;;;;;353126;101;2824947;-73
2021/05/20 01:36:37;;;;;;;4.60;2.05;;;;;;;;;;385487;104;1961976;-72
2021/05/20 01:37:41;;;;;;;3.69;1.86;;;;;;;;;;377246;105;1962952;-73
2021/05/20 01:38:47;;;;;;;3.95;1.83;;;;;;;;;;376862;107;1962025;-74
2021/05/20 01:39:52;;;;;;;3.94;2.02;;;;;;;;;;377970;105;1963950;-74
2021/05/20 01:40:59;;;;;;;2.79;1.49;;;;;;;;;;368703;108;1961925;-73
2021/05/20 01:42:11;;;;;;;3.13;2.11;;;;;;;;;;392481;104;1985927;-75
2021/05/20 01:43:16;;;;;;;5.83;1.94;;;;;;;;;;369365;107;1961898;-73
2021/05/20 01:44:22;;;;;;;3.88;1.74;;;;;;;;;;369215;108;1962012;-73
2021/05/20 01:45:27;;;;;;;3.64;1.40;;;;;;;;;;370362;108;1963980;-73
2021/05/20 01:46:39;;;;;;;4.11;1.71;;;;;;;;;;386397;105;1986912;-73
2021/05/20 01:47:44;;;;;;;4.21;1.77;;;;;;;;;;364516;108;1959683;-72
2021/05/20 01:48:49;;;;;;;3.06;1.68;;;;;;;;;;347260;114;1963031;-74
2021/05/20 01:49:56;;;;;;;3.14;1.62;;;;;;;;;;357734;110;1960815;-73
2021/05/20 01:51:02;;;;;;;3.28;1.45;;;;;;;;;;352142;113;1961995;-73
2021/05/20 01:52:14;;;;;;;3.11;1.53;;;;;;;;;;395337;104;1986017;-73
2021/05/20 01:53:19;;;;;;;3.36;1.64;;;;;;;;;;374084;105;1961060;-73
2021/05/20 01:54:24;;;;;;;2.88;1.51;;;;;;;;;;375453;105;1960718;-74
2021/05/20 01:55:29;;;;;;;4.97;2.29;;;;;;;;;;373026;107;1960888;-73
2021/05/20 01:56:36;;;;;;;3.48;1.46;;;;;;;;;;374159;107;1960747;-75
2021/05/20 01:57:42;;;;;;;2.97;1.43;;;;;;;;;;343779;107;2517866;-73
2021/05/20 01:58:54;;;;;;;5.27;2.15;;;;;;;;;;388222;104;2076997;-74
2021/05/20 02:00:01;;;;;;;3.76;1.49;;;;;;;;;;375645;107;1962011;-73
2021/05/20 02:01:08;;;;;;;5.28;2.03;;;;;;;;;;374076;107;1961988;-72
2021/05/20 02:02:13;;;;;;;4.76;1.96;;;;;;;;;;374631;107;1961904;-74
2021/05/20 02:03:19;;;;;;;4.01;1.96;;;;;;;;;;372904;108;1960978;-73
2021/05/20 02:04:24;;;;;;;4.08;2.08;;;;;;;;;;369714;107;1961890;-74
2021/05/20 02:05:30;;;;;;;3.13;1.73;;;;;;;;;;364692;110;1963027;-73
2021/05/20 02:06:36;;;;;;;6.21;2.06;;;;;;;;;;317593;108;2776958;-73
2021/05/20 02:07:41;;;;;;;5.19;1.71;;;;;;;;;;345690;108;1961967;-72
2021/05/20 02:08:46;;;;;;;3.43;1.94;;;;;;;;;;355900;108;1961889;-72
2021/05/20 02:09:51;;;;;;;5.86;2.24;;;;;;;;;;357333;108;1961980;-73
2021/05/20 02:10:56;;;;;;;6.31;1.79;;;;;;;;;;372114;108;1961981;-72
2021/05/20 02:12:02;;;;;;;2.84;1.60;;;;;;;;;;370024;108;1962002;-73
2021/05/20 02:13:07;;;;;;;2.94;1.71;;;;;;;;;;369083;108;1963964;-73
2021/05/20 02:14:12;;;;;;;4.82;1.87;;;;;;;;;;372777;108;1961933;-72
2021/05/20 02:15:17;;;;;;;3.46;1.81;;;;;;;;;;370222;108;1964033;-73
2021/05/20 02:16:23;;;;;;;4.88;1.91;;;;;;;;;;371130;108;1961941;-73
2021/05/20 02:17:29;;;;;;;3.32;1.97;;;;;;;;;;338218;106;2577035;-71
2021/05/20 02:18:42;;;;;;;3.52;1.98;;;;;;;;;;397388;104;1986982;-73
2021/05/20 02:19:48;;;;;;;4.02;1.57;;;;;;;;;;382254;105;1963925;-74
2021/05/20 02:20:54;;;;;;;4.59;1.82;;;;;;;;;;339192;105;2660962;-73
2021/05/20 02:22:00;;;;;;;4.61;1.94;;;;;;;;;;371357;107;1961927;-72
2021/05/20 02:23:05;;;;;;;3.54;1.79;;;;;;;;;;376112;107;1962946;-73
2021/05/20 02:24:17;;;;;;;4.41;1.61;;;;;;;;;;397995;104;1985984;-73
2021/05/20 02:25:22;;;;;;;4.37;2.34;;;;;;;;;;375854;107;1962037;-73
2021/05/20 02:26:28;;;;;;;4.86;2.32;;;;;;;;;;360853;105;1961928;-72
2021/05/20 02:27:33;;;;;;;3.94;2.21;;;;;;;;;;371542;105;1964964;-73
2021/05/20 02:28:38;;;;;;;4.62;1.96;;;;;;;;;;379124;106;1962001;-73
2021/05/20 02:29:43;;;;;;;5.24;2.27;;;;;;;;;;377482;106;1963853;-73
2021/05/20 02:30:49;;;;;;;4.84;2.14;;;;;;;;;;377379;106;1962013;-73
2021/05/20 02:31:54;;;;;;;3.38;1.74;;;;;;;;;;378371;106;1962997;-74
2021/05/20 02:32:59;;;;;;;6.96;2.23;;;;;;;;;;378975;106;1963891;-72
2021/05/20 02:34:03;;;;;;;4.59;2.24;;;;;;;;;;377175;106;1964006;-73
2021/05/20 02:35:09;;;;;;;5.50;2.15;;;;;;;;;;377486;106;1963992;-73
2021/05/20 02:36:14;;;;;;;4.32;2.19;;;;;;;;;;376990;106;1960952;-73
2021/05/20 02:37:19;;;;;;;3.43;2.19;;;;;;;;;;378513;106;1963982;-73
2021/05/20 02:38:25;;;;;;;3.98;2.05;;;;;;;;;;377737;106;1961976;-72
2021/05/20 02:39:31;;;;;;;3.71;2.32;;;;;;;;;;324956;106;2868037;-75
2021/05/20 02:40:37;;;;;;;5.02;2.14;;;;;;;;;;378489;106;1961969;-72
2021/05/20 02:41:45;;;;;;;6.06;2.04;;;;;;;;;;377914;106;1964032;-72
2021/05/20 02:42:49;;;;;;;3.77;2.27;;;;;;;;;;377178;106;1963035;-73
2021/05/20 02:43:55;;;;;;;3.88;2.09;;;;;;;;;;377563;106;1960993;-73
2021/05/20 02:45:01;;;;;;;7.37;2.11;;;;;;;;;;328209;106;2092783;-72
2021/05/20 02:46:06;;;;;;;4.97;2.33;;;;;;;;;;373120;106;1963887;-73
2021/05/20 02:47:11;;;;;;;4.11;2.41;;;;;;;;;;377602;106;1962047;-73
2021/05/20 02:48:16;;;;;;;4.13;2.11;;;;;;;;;;378049;106;1960717;-73
2021/05/20 02:49:22;;;;;;;3.92;1.99;;;;;;;;;;377088;106;1961007;-72
2021/05/20 02:50:27;;;;;;;4.31;2.22;;;;;;;;;;377925;106;1962018;-73
2021/05/20 02:51:40;;;;;;;3.78;2.27;;;;;;;;;;364212;105;1964983;-73
2021/05/20 02:52:45;;;;;;;5.41;2.02;;;;;;;;;;345776;109;1962042;-73
2021/05/20 02:53:57;;;;;;;3.36;1.99;;;;;;;;;;383667;106;2070939;-73
2021/05/20 02:55:03;;;;;;;5.32;2.11;;;;;;;;;;369934;108;1969975;-73
2021/05/20 02:56:28;;;;;;;4.32;1.91;;;;;;;;;;369193;108;1963991;-73
2021/05/20 02:57:35;;;;;;;4.71;1.85;;;;;;;;;;362591;109;1961921;-74
2021/05/20 02:58:40;;;;;;;6.05;2.12;;;;;;;;;;359952;109;1963951;-73
2021/05/20 02:59:45;;;;;;;6.94;2.52;;;;;;;;;;358466;112;1962028;-74
2021/05/20 03:00:50;;;;;;;5.73;2.16;;;;;;;;;;359986;109;1963972;-73
2021/05/20 03:02:02;;;;;;;2.95;1.68;;;;;;;;;;359606;112;1961957;-73
2021/05/20 03:03:03;;;;;;;3.37;1.61;;;;;;;;;;317023;112;2716971;-73
2021/05/20 03:04:08;;;;;;;4.73;2.10;;;;;;;;;;333378;112;1962940;-72
2021/05/20 03:05:14;;;;;;;6.23;1.86;;;;;;;;;;360018;112;1963945;-73
2021/05/20 03:06:19;;;;;;;4.32;1.91;;;;;;;;;;358059;112;1963978;-73
2021/05/20 03:07:24;;;;;;;3.12;1.76;;;;;;;;;;358465;110;1962033;-73
2021/05/20 03:08:30;;;;;;;2.84;1.53;;;;;;;;;;358176;112;1961913;-73
2021/05/20 03:09:35;;;;;;;4.62;1.75;;;;;;;;;;359961;112;1963966;-73
2021/05/20 03:10:40;;;;;;;4.52;1.97;;;;;;;;;;358922;110;1963001;-73
2021/05/20 03:11:46;;;;;;;12.19;2.31;;;;;;;;;;358600;112;1962963;-74
2021/05/20 03:12:51;;;;;;;4.43;2.06;;;;;;;;;;359170;112;1963005;-75
2021/05/20 03:13:57;;;;;;;3.66;1.79;;;;;;;;;;324712;112;1963945;-73
2021/05/20 03:15:02;;;;;;;6.36;1.78;;;;;;;;;;333447;110;1964002;-74
2021/05/20 03:16:07;;;;;;;5.88;1.86;;;;;;;;;;360251;112;1962015;-73
2021/05/20 03:17:12;;;;;;;4.10;1.74;;;;;;;;;;361204;110;1963015;-73
2021/05/20 03:18:17;;;;;;;6.23;1.74;;;;;;;;;;358775;112;1962017;-73
2021/05/20 03:19:22;;;;;;;5.23;1.99;;;;;;;;;;358343;112;1962052;-73
2021/05/20 03:20:34;;;;;;;3.83;1.61;;;;;;;;;;396197;103;1986862;-73
2021/05/20 03:21:39;;;;;;;5.73;1.88;;;;;;;;;;375709;106;1962989;-73
2021/05/20 03:22:46;;;;;;;5.83;2.01;;;;;;;;;;344097;106;2916912;-72
2021/05/20 03:23:52;;;;;;;3.63;1.65;;;;;;;;;;381126;106;1960826;-73
2021/05/20 03:24:57;;;;;;;4.19;1.76;;;;;;;;;;381404;106;1960969;-72
2021/05/20 03:26:09;;;;;;;4.14;2.08;;;;;;;;;;393392;104;1984877;-71
2021/05/20 03:27:15;;;;;;;4.08;1.51;;;;;;;;;;375038;107;1962981;-72
2021/05/20 03:28:20;;;;;;;4.91;1.56;;;;;;;;;;337279;107;1960979;-73
2021/05/20 03:29:25;;;;;;;3.87;1.68;;;;;;;;;;345102;107;1962013;-72
2021/05/20 03:30:30;;;;;;;5.18;1.77;;;;;;;;;;370684;107;1963020;-71
2021/05/20 03:31:35;;;;;;;3.61;1.78;;;;;;;;;;370117;107;1961978;-72
2021/05/20 03:32:40;;;;;;;7.49;1.91;;;;;;;;;;371325;107;1961949;-72
2021/05/20 03:33:45;;;;;;;3.06;1.54;;;;;;;;;;369804;108;1962024;-72
2021/05/20 03:34:50;;;;;;;3.87;1.68;;;;;;;;;;371903;107;1961900;-73
2021/05/20 03:35:57;;;;;;;4.32;1.85;;;;;;;;;;368639;109;1962085;-72
2021/05/20 03:37:03;;;;;;;4.04;1.78;;;;;;;;;;370776;107;1961992;-73
2021/05/20 03:38:08;;;;;;;4.14;1.63;;;;;;;;;;326795;107;2053816;-72
2021/05/20 03:39:13;;;;;;;3.88;1.51;;;;;;;;;;330339;110;1961816;-73
2021/05/20 03:40:20;;;;;;;3.12;1.46;;;;;;;;;;371449;107;1964001;-71
2021/05/20 03:41:25;;;;;;;4.12;1.88;;;;;;;;;;371095;107;1965023;-71
2021/05/20 03:42:30;;;;;;;2.52;1.57;;;;;;;;;;369746;107;1961900;-70
2021/05/20 03:43:36;;;;;;;4.56;1.62;;;;;;;;;;371353;107;1964017;-73
2021/05/20 03:44:43;;;;;;;5.37;1.56;;;;;;;;;;332680;109;1962210;-74
2021/05/20 03:45:47;;;;;;;4.28;1.76;;;;;;;;;;342567;107;1960981;-73
2021/05/20 03:46:53;;;;;;;4.17;1.63;;;;;;;;;;356182;108;1960774;-73
2021/05/20 03:47:58;;;;;;;4.52;1.53;;;;;;;;;;372055;107;1960889;-72
2021/05/20 03:49:11;;;;;;;5.03;1.85;;;;;;;;;;394642;104;1984940;-73
2021/05/20 03:50:17;;;;;;;3.69;1.54;;;;;;;;;;325840;107;2062740;-72
2021/05/20 03:51:22;;;;;;;2.88;1.35;;;;;;;;;;343661;107;1961946;-73
2021/05/20 03:52:27;;;;;;;5.62;1.91;;;;;;;;;;356717;109;1960695;-72
2021/05/20 03:53:35;;;;;;;4.22;1.54;;;;;;;;;;370063;107;1963889;-73
2021/05/20 03:54:42;;;;;;;4.80;1.79;;;;;;;;;;370381;107;1961966;-73
2021/05/20 03:55:49;;;;;;;4.53;1.60;;;;;;;;;;369896;107;1961009;-74
2021/05/20 03:56:55;;;;;;;4.11;2.25;;;;;;;;;;371974;107;1962899;-74
2021/05/20 03:58:08;;;;;;;4.94;1.77;;;;;;;;;;383660;106;1986879;-73
2021/05/20 03:59:13;;;;;;;4.28;1.64;;;;;;;;;;366164;109;1962015;-74
2021/05/20 04:00:20;;;;;;;2.34;1.57;;;;;;;;;;330503;110;2556945;-73
2021/05/20 04:01:25;;;;;;;5.30;1.76;;;;;;;;;;322206;110;2025120;-73
2021/05/20 04:02:31;;;;;;;4.29;1.82;;;;;;;;;;338894;110;1961878;-73
2021/05/20 04:03:36;;;;;;;7.28;2.40;;;;;;;;;;360827;111;1960999;-74
2021/05/20 04:04:41;;;;;;;3.76;1.67;;;;;;;;;;364594;110;1962019;-72
2021/05/20 04:05:48;;;;;;;3.97;1.88;;;;;;;;;;364000;110;1961941;-74
2021/05/20 04:06:53;;;;;;;4.07;1.88;;;;;;;;;;357614;112;1961951;-73
2021/05/20 04:08:00;;;;;;;3.24;1.64;;;;;;;;;;339708;110;2935004;-75
2021/05/20 04:09:05;;;;;;;2.84;1.31;;;;;;;;;;356357;110;1960956;-73
2021/05/20 04:10:11;;;;;;;5.93;1.94;;;;;;;;;;363441;110;1962049;-74
2021/05/20 04:11:16;;;;;;;3.57;1.98;;;;;;;;;;365792;110;1962022;-73
2021/05/20 04:12:22;;;;;;;4.81;2.01;;;;;;;;;;364213;110;1962007;-74
2021/05/20 04:13:41;;;;;;;4.70;2.16;;;;;;;;;;364776;110;1961953;-74
2021/05/20 04:14:46;;;;;;;4.98;2.22;;;;;;;;;;366468;110;1963992;-74
2021/05/20 04:15:51;;;;;;;3.67;1.68;;;;;;;;;;363890;110;1961025;-74
2021/05/20 04:16:57;;;;;;;4.06;1.95;;;;;;;;;;365887;111;1961811;-74
2021/05/20 04:18:03;;;;;;;6.41;2.53;;;;;;;;;;311947;108;2853965;-74
2021/05/20 04:19:08;;;;;;;3.87;1.76;;;;;;;;;;329609;113;1962008;-73
2021/05/20 04:20:15;;;;;;;4.17;1.78;;;;;;;;;;351008;113;1961972;-74
2021/05/20 04:21:20;;;;;;;4.15;2.29;;;;;;;;;;350917;113;1962957;-74
2021/05/20 04:22:27;;;;;;;3.29;1.58;;;;;;;;;;347487;115;1962940;-74
2021/05/20 04:23:33;;;;;;;4.84;1.82;;;;;;;;;;301288;115;2797043;-73
2021/05/20 04:24:38;;;;;;;4.90;1.92;;;;;;;;;;334567;115;1963940;-74
2021/05/20 04:25:43;;;;;;;3.91;1.76;;;;;;;;;;341264;115;1961908;-73
2021/05/20 04:26:50;;;;;;;3.57;1.81;;;;;;;;;;345619;115;1962023;-74
2021/05/20 04:27:55;;;;;;;3.62;1.82;;;;;;;;;;348432;115;1962003;-73
2021/05/20 04:29:01;;;;;;;5.58;1.87;;;;;;;;;;343597;115;1961971;-74
2021/05/20 04:30:13;;;;;;;3.47;1.77;;;;;;;;;;376043;106;1963990;-74
2021/05/20 04:31:18;;;;;;;4.19;1.79;;;;;;;;;;370392;108;1963037;-74
2021/05/20 04:32:23;;;;;;;3.11;1.61;;;;;;;;;;370847;107;1961943;-74
2021/05/20 04:33:28;;;;;;;3.11;1.65;;;;;;;;;;367853;107;1962975;-73
2021/05/20 04:34:34;;;;;;;2.86;1.48;;;;;;;;;;368237;109;1961985;-73
2021/05/20 04:35:46;;;;;;;4.98;1.96;;;;;;;;;;335681;106;2803741;-74
2021/05/20 04:36:51;;;;;;;2.64;1.56;;;;;;;;;;340757;109;1961835;-74
2021/05/20 04:37:57;;;;;;;3.99;1.95;;;;;;;;;;348730;111;1961956;-73
2021/05/20 04:39:02;;;;;;;3.06;1.63;;;;;;;;;;359308;111;1961005;-73
2021/05/20 04:40:08;;;;;;;3.56;1.46;;;;;;;;;;359224;112;1960686;-73
2021/05/20 04:41:13;;;;;;;3.23;1.47;;;;;;;;;;358918;111;1960920;-73
2021/05/20 04:42:19;;;;;;;3.23;1.78;;;;;;;;;;358270;112;1960883;-72
2021/05/20 04:43:25;;;;;;;4.99;1.70;;;;;;;;;;324859;111;2896990;-72
2021/05/20 04:44:32;;;;;;;11.41;2.06;;;;;;;;;;357095;111;1960843;-73
2021/05/20 04:45:43;;;;;;;3.98;1.73;;;;;;;;;;357229;112;1963920;-74
2021/05/20 04:46:47;;;;;;;3.12;1.38;;;;;;;;;;357838;112;1960879;-73
2021/05/20 04:47:52;;;;;;;3.82;1.67;;;;;;;;;;357455;111;1960839;-74
2021/05/20 04:48:57;;;;;;;3.92;1.61;;;;;;;;;;358555;110;1960796;-74
2021/05/20 04:50:06;;;;;;;4.13;1.36;;;;;;;;;;338013;111;2304844;-73
2021/05/20 04:51:11;;;;;;;4.05;1.52;;;;;;;;;;358542;111;1960785;-74
2021/05/20 04:52:16;;;;;;;6.09;1.83;;;;;;;;;;357073;112;1960973;-74
2021/05/20 04:53:23;;;;;;;4.66;1.72;;;;;;;;;;356080;111;1961867;-72
2021/05/20 04:54:28;;;;;;;3.79;1.49;;;;;;;;;;357117;111;1961955;-74
2021/05/20 04:55:34;;;;;;;4.36;1.87;;;;;;;;;;357089;111;1963952;-74
2021/05/20 04:56:46;;;;;;;3.73;1.57;;;;;;;;;;393343;104;1960912;-74
2021/05/20 04:57:51;;;;;;;4.52;1.84;;;;;;;;;;370976;107;1962820;-74
2021/05/20 04:58:58;;;;;;;3.88;1.85;;;;;;;;;;370119;107;1963968;-74
2021/05/20 05:00:05;;;;;;;3.24;1.75;;;;;;;;;;337149;107;2893010;-74
2021/05/20 05:01:18;;;;;;;5.24;1.51;;;;;;;;;;371701;107;1962005;-74
2021/05/20 05:02:24;;;;;;;5.49;1.37;;;;;;;;;;314480;109;2077510;-75
2021/05/20 05:03:30;;;;;;;4.02;2.21;;;;;;;;;;349175;111;1962049;-73
2021/05/20 05:04:35;;;;;;;3.37;1.46;;;;;;;;;;358495;112;1961885;-75
2021/05/20 05:05:51;;;;;;;5.36;1.42;;;;;;;;;;360871;111;1962039;-73
2021/05/20 05:06:57;;;;;;;4.73;1.88;;;;;;;;;;364887;109;1961901;-74
2021/05/20 05:08:03;;;;;;;4.76;1.78;;;;;;;;;;360445;110;1961907;-73
2021/05/20 05:09:08;;;;;;;4.87;1.48;;;;;;;;;;333936;109;1961972;-73
2021/05/20 05:10:14;;;;;;;4.98;1.69;;;;;;;;;;361143;110;1960786;-73
2021/05/20 05:11:19;;;;;;;3.27;1.63;;;;;;;;;;361760;110;1960954;-74
2021/05/20 05:12:26;;;;;;;3.05;1.51;;;;;;;;;;360307;109;1962020;-73
2021/05/20 05:13:40;;;;;;;4.89;1.73;;;;;;;;;;361031;109;1963040;-73
2021/05/20 05:14:47;;;;;;;4.18;1.87;;;;;;;;;;365089;107;1959693;-73
2021/05/20 05:15:54;;;;;;;3.89;1.89;;;;;;;;;;317696;109;2754004;-74
2021/05/20 05:16:59;;;;;;;3.57;1.76;;;;;;;;;;357094;109;1961928;-74
2021/05/20 05:18:05;;;;;;;4.59;1.13;;;;;;;;;;364861;109;1961882;-74
2021/05/20 05:19:10;;;;;;;4.03;1.54;;;;;;;;;;368076;110;1961943;-74
2021/05/20 05:20:16;;;;;;;4.48;1.37;;;;;;;;;;365824;107;1964875;-74
2021/05/20 05:21:22;;;;;;;4.85;1.57;;;;;;;;;;337905;107;2504041;-75
2021/05/20 05:22:27;;;;;;;4.66;1.73;;;;;;;;;;345954;108;1962017;-75
2021/05/20 05:23:32;;;;;;;4.56;1.66;;;;;;;;;;352246;107;1961991;-74
2021/05/20 05:24:37;;;;;;;4.20;1.41;;;;;;;;;;352621;108;1961980;-75
2021/05/20 05:25:43;;;;;;;3.27;1.64;;;;;;;;;;364831;108;1963993;-74
2021/05/20 05:26:48;;;;;;;3.61;1.36;;;;;;;;;;362447;109;1960988;-74
2021/05/20 05:27:53;;;;;;;5.41;2.06;;;;;;;;;;369651;107;1962918;-74
2021/05/20 05:28:58;;;;;;;4.41;1.40;;;;;;;;;;370033;109;1960832;-74
2021/05/20 05:30:04;;;;;;;5.13;1.77;;;;;;;;;;367374;108;1961989;-74
2021/05/20 05:31:10;;;;;;;3.66;1.77;;;;;;;;;;369279;107;1961984;-74
2021/05/20 05:32:23;;;;;;;4.33;1.90;;;;;;;;;;361729;110;1964075;-75
2021/05/20 05:33:28;;;;;;;6.54;1.86;;;;;;;;;;350242;113;1962052;-73
2021/05/20 05:34:34;;;;;;;2.79;1.28;;;;;;;;;;357185;113;1961091;-73
2021/05/20 05:35:39;;;;;;;3.86;1.43;;;;;;;;;;350635;111;1960613;-73
2021/05/20 05:36:46;;;;;;;3.53;1.29;;;;;;;;;;327610;119;2938987;-74
2021/05/20 05:37:51;;;;;;;3.62;1.26;;;;;;;;;;303372;119;1962771;-74
2021/05/20 05:38:58;;;;;;;4.31;1.36;;;;;;;;;;322191;119;1961934;-73
2021/05/20 05:40:17;;;;;;;3.08;1.42;;;;;;;;;;387133;106;1985934;-73
2021/05/20 05:41:23;;;;;;;2.85;1.58;;;;;;;;;;369329;110;1962043;-73
2021/05/20 05:42:28;;;;;;;2.61;1.33;;;;;;;;;;351158;111;1961032;-73
2021/05/20 05:43:41;;;;;;;2.66;1.37;;;;;;;;;;354092;106;1964908;-73
2021/05/20 05:44:47;;;;;;;2.54;1.22;;;;;;;;;;366640;109;1962006;-74
2021/05/20 05:45:52;;;;;;;3.24;1.42;;;;;;;;;;362276;110;1961853;-75
2021/05/20 05:46:57;;;;;;;4.44;1.18;;;;;;;;;;362087;111;1963014;-75
2021/05/20 05:48:03;;;;;;;3.78;1.23;;;;;;;;;;358963;111;1962006;-74
2021/05/20 05:50:25;;;;;;;6.27;1.71;;;;;;;;;;405082;101;1995067;-73
2021/05/20 05:51:31;;;;;;;3.36;1.63;;;;;;;;;;360930;103;2309041;-73
2021/05/20 05:52:37;;;;;;;6.55;2.27;;;;;;;;;;378568;105;1962962;-74
2021/05/20 05:53:43;;;;;;;3.53;1.34;;;;;;;;;;370385;107;1960849;-73
2021/05/20 05:54:49;;;;;;;4.03;1.03;;;;;;;;;;373277;107;1960887;-73
2021/05/20 05:56:00;;;;;;;3.90;1.47;;;;;;;;;;371024;104;1984762;-73
2021/05/20 05:57:06;;;;;;;3.17;1.33;;;;;;;;;;348834;106;1961956;-73
2021/05/20 05:58:18;;;;;;;2.13;1.02;;;;;;;;;;393418;104;1985941;-73
2021/05/20 05:59:22;;;;;;;3.57;1.34;;;;;;;;;;378619;106;1961928;-73
2021/05/20 06:00:29;;;;;;;3.35;1.19;;;;;;;;;;378750;106;1962921;-74
2021/05/20 06:01:35;;;;;;;3.11;1.15;;;;;;;;;;370199;107;2912842;-73
2021/05/20 06:02:42;;;;;;;4.91;1.84;;;;;;;;;;330136;107;2015217;-73
2021/05/20 06:03:47;;;;;;;4.08;1.46;;;;;;;;;;372208;108;1962956;-74
2021/05/20 06:04:52;;;;;;;4.21;1.38;;;;;;;;;;371047;108;1961906;-72
2021/05/20 06:05:58;;;;;;;4.76;1.54;;;;;;;;;;371990;108;1961996;-73
2021/05/20 06:07:04;;;;;;;6.21;1.97;;;;;;;;;;375422;106;1962836;-73
2021/05/20 06:08:10;;;;;;;4.13;1.48;;;;;;;;;;326772;106;2747994;-73
2021/05/20 06:09:15;;;;;;;5.57;1.45;;;;;;;;;;325635;108;2034662;-74
2021/05/20 06:10:23;;;;;;;4.33;1.52;;;;;;;;;;373131;108;1960929;-73
2021/05/20 06:11:29;;;;;;;5.08;1.44;;;;;;;;;;374341;108;1961903;-74
2021/05/20 06:12:35;;;;;;;3.99;1.41;;;;;;;;;;324514;108;2832986;-73
2021/05/20 06:13:40;;;;;;;5.44;2.05;;;;;;;;;;328905;108;1984052;-74
2021/05/20 06:14:45;;;;;;;6.86;2.24;;;;;;;;;;355190;107;1963975;-73
2021/05/20 06:15:52;;;;;;;5.30;1.69;;;;;;;;;;369376;103;1960693;-73
2021/05/20 06:16:57;;;;;;;4.57;1.62;;;;;;;;;;367839;108;1961828;-74
2021/05/20 06:18:02;;;;;;;5.56;2.16;;;;;;;;;;366712;110;1961921;-75
2021/05/20 06:19:08;;;;;;;6.97;1.98;;;;;;;;;;366334;108;1961974;-74
2021/05/20 06:20:20;;;;;;;4.30;1.35;;;;;;;;;;369296;104;1960665;-74
2021/05/20 06:21:25;;;;;;;2.63;1.37;;;;;;;;;;364582;107;1961963;-73
2021/05/20 06:22:31;;;;;;;5.09;1.69;;;;;;;;;;377338;105;1962021;-74
2021/05/20 06:23:36;;;;;;;4.37;1.40;;;;;;;;;;372305;108;1961975;-73
2021/05/20 06:24:42;;;;;;;4.08;1.97;;;;;;;;;;354818;113;1962001;-72
2021/05/20 06:25:49;;;;;;;3.22;1.17;;;;;;;;;;343166;105;2482047;-73
2021/05/20 06:26:55;;;;;;;3.68;1.46;;;;;;;;;;362864;105;1960821;-73